Time;durP1;ratioP1;P1;durP2;ratioP2;P2;SDS_P1;SDS_P2;PMS_P1;PMS_P2;Temp;Humidity;BMP_temperature;BMP_pressure;BME280_temperature;BME280_humidity;BME280_pressure;Samples;Min_cycle;Max_cycle;Signal;HPM_P1;HPM_P2
2022/08/22 00:04:24;;;;;;;8.70;7.80;;;;;;;;;;10252354;28;20126;-84
2022/08/22 00:09:32;;;;;;;9.00;7.78;;;;;;;;;;10253131;28;20451;-87
2022/08/22 00:14:36;;;;;;;9.50;7.97;;;;;;;;;;10286484;28;20070;-76
2022/08/22 00:19:45;;;;;;;8.88;7.97;;;;;;;;;;10280287;28;20047;-84
2022/08/22 00:25:06;;;;;;;8.52;7.60;;;;;;;;;;10312792;23;20145;-82
2022/08/22 00:30:08;;;;;;;9.75;8.52;;;;;;;;;;10243478;28;20126;-84
2022/08/22 00:35:16;;;;;;;10.10;8.68;;;;;;;;;;10243808;28;20721;-81
2022/08/22 00:40:16;;;;;;;10.52;7.95;;;;;;;;;;10255619;28;20054;-81
2022/08/22 00:45:19;;;;;;;9.73;7.90;;;;;;;;;;10244741;28;20386;-81
2022/08/22 00:50:28;;;;;;;10.25;7.22;;;;;;;;;;10247194;28;20038;-80
2022/08/22 00:55:35;;;;;;;11.05;8.80;;;;;;;;;;10217496;29;20217;-79
2022/08/22 01:00:40;;;;;;;9.30;8.30;;;;;;;;;;10240634;28;20070;-81
2022/08/22 01:06:01;;;;;;;8.55;7.65;;;;;;;;;;10243414;28;20035;-82
2022/08/22 01:11:20;;;;;;;10.02;7.80;;;;;;;;;;10233983;28;20499;-80
2022/08/22 01:16:26;;;;;;;8.45;7.63;;;;;;;;;;10226986;28;20046;-80
2022/08/22 01:21:47;;;;;;;9.07;7.70;;;;;;;;;;10222485;28;20047;-79
2022/08/22 01:27:18;;;;;;;11.02;8.65;;;;;;;;;;10263386;28;20103;-79
2022/08/22 01:32:30;;;;;;;9.38;8.43;;;;;;;;;;10263355;28;20380;-75
2022/08/22 01:37:31;;;;;;;9.32;8.27;;;;;;;;;;10255266;28;20039;-82
2022/08/22 01:42:41;;;;;;;10.18;8.38;;;;;;;;;;10268806;28;20068;-77
2022/08/22 01:47:47;;;;;;;11.13;9.48;;;;;;;;;;10263541;28;20131;-79
2022/08/22 01:52:50;;;;;;;9.10;8.20;;;;;;;;;;10273760;28;20043;-81
2022/08/22 01:57:58;;;;;;;9.98;8.98;;;;;;;;;;10263804;28;20039;-76
2022/08/22 02:03:20;;;;;;;10.63;8.82;;;;;;;;;;10288609;28;20085;-75
2022/08/22 02:08:27;;;;;;;9.65;8.65;;;;;;;;;;10259149;28;20066;-79
2022/08/22 02:13:58;;;;;;;8.10;7.28;;;;;;;;;;10271226;28;20027;-75
2022/08/22 02:18:59;;;;;;;9.60;7.78;;;;;;;;;;10275532;28;20074;-78
2022/08/22 02:24:02;;;;;;;8.87;7.73;;;;;;;;;;10272898;28;20050;-79
2022/08/22 02:29:11;;;;;;;10.85;8.52;;;;;;;;;;10276660;28;20334;-76
2022/08/22 02:34:15;;;;;;;7.57;6.85;;;;;;;;;;10286048;28;20058;-76
2022/08/22 02:39:21;;;;;;;9.32;7.88;;;;;;;;;;10274435;28;20049;-80
2022/08/22 02:44:28;;;;;;;10.13;9.13;;;;;;;;;;10262855;28;20062;-80
2022/08/22 02:49:38;;;;;;;8.52;7.63;;;;;;;;;;10296386;28;20054;-76
2022/08/22 02:54:44;;;;;;;9.50;8.50;;;;;;;;;;10290389;28;20042;-77
2022/08/22 03:00:07;;;;;;;9.27;8.18;;;;;;;;;;10253397;28;20043;-80
2022/08/22 03:05:20;;;;;;;8.60;7.70;;;;;;;;;;10343240;23;20053;-76
2022/08/22 03:10:21;;;;;;;;;;;;;;;;;;10320466;28;20034;-80
2022/08/22 03:15:29;;;;;;;9.48;8.45;;;;;;;;;;10271969;28;19969;-78
2022/08/22 03:20:35;;;;;;;9.63;8.70;;;;;;;;;;10312374;28;20031;-78
2022/08/22 03:26:08;;;;;;;14.23;8.73;;;;;;;;;;10311731;28;20113;-77
2022/08/22 03:31:13;;;;;;;10.00;8.88;;;;;;;;;;10252731;28;20039;-77
2022/08/22 03:36:17;;;;;;;11.07;9.05;;;;;;;;;;10284489;28;20152;-76
2022/08/22 03:41:18;;;;;;;12.80;10.30;;;;;;;;;;10269888;28;20042;-81
2022/08/22 03:46:41;;;;;;;10.40;9.20;;;;;;;;;;10244255;28;20057;-79
2022/08/22 03:51:53;;;;;;;10.57;8.73;;;;;;;;;;10263426;28;20047;-80
2022/08/22 03:57:06;;;;;;;10.18;8.65;;;;;;;;;;10236261;28;20043;-77
2022/08/22 04:02:18;;;;;;;10.93;9.57;;;;;;;;;;10235171;28;20047;-74
2022/08/22 04:07:31;;;;;;;13.02;9.90;;;;;;;;;;10239610;28;20051;-78
2022/08/22 04:12:44;;;;;;;11.03;9.93;;;;;;;;;;10245074;28;20063;-78
2022/08/22 04:18:03;;;;;;;10.93;8.70;;;;;;;;;;10237335;28;20047;-79
2022/08/22 04:23:03;;;;;;;10.88;9.40;;;;;;;;;;10236611;28;20095;-81
2022/08/22 04:28:08;;;;;;;11.35;10.15;;;;;;;;;;10277883;28;20031;-76
2022/08/22 04:33:15;;;;;;;11.77;10.15;;;;;;;;;;10273110;28;20065;-76
2022/08/22 04:38:19;;;;;;;12.23;9.80;;;;;;;;;;10244796;28;20101;-77
2022/08/22 04:43:34;;;;;;;13.27;10.80;;;;;;;;;;10266734;28;20118;-82
2022/08/22 04:48:37;;;;;;;15.27;11.15;;;;;;;;;;10265335;28;20044;-84
2022/08/22 04:53:51;;;;;;;13.27;10.13;;;;;;;;;;10259045;28;20047;-75
2022/08/22 04:58:51;;;;;;;;;;;;;;;;;;10254318;28;20051;-77
2022/08/22 05:03:58;;;;;;;10.37;9.17;;;;;;;;;;10267052;28;19933;-79
2022/08/22 05:09:00;;;;;;;13.38;11.45;;;;;;;;;;10253144;28;20046;-80
2022/08/22 05:14:05;;;;;;;12.37;11.00;;;;;;;;;;10256383;28;20055;-83
2022/08/22 05:19:06;;;;;;;12.95;10.98;;;;;;;;;;10245262;28;20057;-82
2022/08/22 05:24:20;;;;;;;12.20;10.90;;;;;;;;;;10239624;29;20071;-80
2022/08/22 05:29:22;;;;;;;12.52;10.70;;;;;;;;;;10266663;28;20095;-79
2022/08/22 05:34:24;;;;;;;11.02;9.48;;;;;;;;;;10255784;28;20452;-81
2022/08/22 05:39:26;;;;;;;11.87;10.30;;;;;;;;;;10226487;28;20048;-70
2022/08/22 05:44:30;;;;;;;12.00;10.50;;;;;;;;;;10228269;28;20781;-70
2022/08/22 05:49:30;;;;;;;13.18;11.43;;;;;;;;;;10237635;28;20046;-70
2022/08/22 05:54:33;;;;;;;11.07;9.87;;;;;;;;;;10214283;29;20039;-71
2022/08/22 05:59:34;;;;;;;11.23;10.13;;;;;;;;;;10237227;28;20558;-70
2022/08/22 06:04:41;;;;;;;13.57;10.90;;;;;;;;;;10241219;28;20480;-71
2022/08/22 06:09:44;;;;;;;11.57;10.35;;;;;;;;;;10242838;29;20031;-71
2022/08/22 06:14:51;;;;;;;12.35;9.70;;;;;;;;;;10242046;29;20065;-70
2022/08/22 06:19:52;;;;;;;11.77;10.57;;;;;;;;;;10243540;28;20034;-71
2022/08/22 06:24:55;;;;;;;10.23;9.00;;;;;;;;;;10214921;28;20040;-71
2022/08/22 06:29:57;;;;;;;10.65;9.15;;;;;;;;;;10220752;28;20036;-71
2022/08/22 06:35:02;;;;;;;15.50;11.47;;;;;;;;;;10240419;28;20511;-72
2022/08/22 06:40:05;;;;;;;10.07;8.13;;;;;;;;;;10241688;28;20061;-76
2022/08/22 06:45:10;;;;;;;9.80;8.63;;;;;;;;;;10226561;29;20467;-74
2022/08/22 06:50:13;;;;;;;9.88;8.00;;;;;;;;;;10224560;29;20436;-71
2022/08/22 06:55:14;;;;;;;8.57;7.68;;;;;;;;;;10237494;28;20058;-74
2022/08/22 07:00:15;;;;;;;13.48;7.93;;;;;;;;;;10240084;28;20031;-73
2022/08/22 07:05:18;;;;;;;12.77;7.35;;;;;;;;;;10238325;28;20054;-73
2022/08/22 07:10:20;;;;;;;8.05;7.22;;;;;;;;;;10228387;28;20043;-70
2022/08/22 07:15:33;;;;;;;6.88;6.28;;;;;;;;;;10241827;28;20126;-81
2022/08/22 07:20:35;;;;;;;7.60;6.87;;;;;;;;;;10219425;28;20055;-72
2022/08/22 07:25:51;;;;;;;8.05;6.82;;;;;;;;;;10235365;28;20058;-73
2022/08/22 07:30:57;;;;;;;6.63;6.03;;;;;;;;;;10239674;28;20380;-71
2022/08/22 07:35:58;;;;;;;8.65;6.47;;;;;;;;;;10239443;28;20429;-76
2022/08/22 07:41:04;;;;;;;6.53;5.93;;;;;;;;;;10237889;28;20497;-72
2022/08/22 07:46:24;;;;;;;6.60;5.90;;;;;;;;;;10228515;28;20043;-69
2022/08/22 07:51:35;;;;;;;6.18;5.57;;;;;;;;;;10221642;28;20090;-73
2022/08/22 07:56:42;;;;;;;7.05;5.88;;;;;;;;;;10217151;29;20571;-76
2022/08/22 08:01:44;;;;;;;6.30;5.55;;;;;;;;;;10234760;28;20043;-73
2022/08/22 08:06:46;;;;;;;7.80;5.63;;;;;;;;;;10216778;28;20050;-72
2022/08/22 08:11:49;;;;;;;7.13;5.03;;;;;;;;;;10238429;29;20040;-75
2022/08/22 08:16:50;;;;;;;6.13;5.43;;;;;;;;;;10231854;28;20448;-76
2022/08/22 08:21:53;;;;;;;7.47;5.00;;;;;;;;;;10238544;28;20110;-74
2022/08/22 08:32:14;;;;;;;6.82;4.97;;;;;;;;;;10221141;28;20487;-73
2022/08/22 08:37:19;;;;;;;6.75;5.20;;;;;;;;;;10232074;29;20043;-71
2022/08/22 08:43:26;;;;;;;7.95;5.25;;;;;;;;;;10231507;28;20220;-73
2022/08/22 08:48:06;;;;;;;4.60;3.83;;;;;;;;;;10226237;29;20091;-72
2022/08/22 08:53:12;;;;;;;2.90;2.70;;;;;;;;;;10206966;28;20046;-72
2022/08/22 08:58:30;;;;;;;6.78;4.18;;;;;;;;;;10235364;28;20807;-72
2022/08/22 09:03:53;;;;;;;3.50;2.65;;;;;;;;;;10224050;28;20082;-71
2022/08/22 09:08:53;;;;;;;3.45;2.72;;;;;;;;;;10235246;29;20039;-73
2022/08/22 09:14:08;;;;;;;2.90;2.63;;;;;;;;;;10230525;28;20039;-70
2022/08/22 09:19:14;;;;;;;4.22;2.92;;;;;;;;;;10232261;28;20437;-74
2022/08/22 09:24:33;;;;;;;3.80;3.03;;;;;;;;;;10235703;28;20097;-73
2022/08/22 09:29:42;;;;;;;5.43;3.40;;;;;;;;;;10224843;28;20140;-68
2022/08/22 09:34:46;;;;;;;3.45;2.60;;;;;;;;;;10234202;28;20139;-69
2022/08/22 09:39:49;;;;;;;3.60;2.60;;;;;;;;;;10240387;28;20051;-73
2022/08/22 09:44:52;;;;;;;4.55;2.70;;;;;;;;;;10279702;28;20087;-79
2022/08/22 09:50:03;;;;;;;5.63;3.33;;;;;;;;;;10273373;28;20039;-79
2022/08/22 09:55:22;;;;;;;7.28;2.65;;;;;;;;;;10261128;28;20039;-80
2022/08/22 10:00:26;;;;;;;3.58;2.40;;;;;;;;;;10249603;28;20031;-84
2022/08/22 10:05:28;;;;;;;5.22;2.45;;;;;;;;;;10235967;28;20086;-72
2022/08/22 10:10:48;;;;;;;2.97;2.65;;;;;;;;;;10234726;28;20095;-75
2022/08/22 10:16:15;;;;;;;2.97;2.40;;;;;;;;;;10243961;28;20043;-75
2022/08/22 10:21:27;;;;;;;5.05;2.40;;;;;;;;;;10240572;28;20067;-71
2022/08/22 10:26:32;;;;;;;4.07;2.60;;;;;;;;;;10243035;28;20079;-72
2022/08/22 10:31:41;;;;;;;3.63;2.30;;;;;;;;;;10240876;29;20035;-70
2022/08/22 10:37:00;;;;;;;4.18;2.50;;;;;;;;;;10227850;28;20071;-74
2022/08/22 10:42:01;;;;;;;4.63;2.88;;;;;;;;;;10238090;28;20031;-70
2022/08/22 10:47:06;;;;;;;5.20;2.90;;;;;;;;;;10237725;28;20047;-71
2022/08/22 10:52:08;;;;;;;6.03;2.60;;;;;;;;;;10234186;28;20314;-72
2022/08/22 10:57:11;;;;;;;3.78;2.45;;;;;;;;;;10240498;28;20051;-72
2022/08/22 11:02:26;;;;;;;2.97;2.20;;;;;;;;;;10246712;28;20046;-72
2022/08/22 11:07:39;;;;;;;3.17;2.60;;;;;;;;;;10226713;28;20928;-71
2022/08/22 11:12:43;;;;;;;4.03;2.30;;;;;;;;;;10219932;28;20476;-73
2022/08/22 11:17:58;;;;;;;4.70;2.75;;;;;;;;;;10236633;28;20102;-73
2022/08/22 11:22:59;;;;;;;3.88;2.45;;;;;;;;;;10238334;29;20046;-71
2022/08/22 11:28:24;;;;;;;2.90;2.60;;;;;;;;;;10232072;28;20031;-70
2022/08/22 11:33:35;;;;;;;2.33;2.08;;;;;;;;;;10237510;29;20050;-72
2022/08/22 11:38:38;;;;;;;4.82;2.40;;;;;;;;;;10213116;28;20047;-71
2022/08/22 11:43:46;;;;;;;3.38;2.10;;;;;;;;;;10212241;29;20118;-73
2022/08/22 11:48:49;;;;;;;3.60;2.25;;;;;;;;;;10242401;28;20051;-72
2022/08/22 11:53:58;;;;;;;2.10;1.88;;;;;;;;;;10246888;28;20031;-74
2022/08/22 11:59:05;;;;;;;3.00;2.20;;;;;;;;;;10239267;28;20408;-72
2022/08/22 12:04:06;;;;;;;3.20;1.95;;;;;;;;;;10240196;28;20404;-73
2022/08/22 12:09:25;;;;;;;2.37;2.10;;;;;;;;;;10231895;28;20039;-71
2022/08/22 12:14:32;;;;;;;2.42;2.20;;;;;;;;;;10224971;28;20442;-72
2022/08/22 12:19:41;;;;;;;3.72;2.30;;;;;;;;;;10237196;28;20130;-73
2022/08/22 12:24:47;;;;;;;5.03;2.53;;;;;;;;;;10229957;28;20039;-71
2022/08/22 12:29:48;;;;;;;3.28;2.03;;;;;;;;;;10214795;28;20046;-78
2022/08/22 12:34:59;;;;;;;5.20;2.70;;;;;;;;;;10234634;28;20043;-72
2022/08/22 12:40:02;;;;;;;2.83;2.20;;;;;;;;;;10241090;28;20043;-73
2022/08/22 12:45:16;;;;;;;3.72;2.40;;;;;;;;;;10235459;28;20047;-75
2022/08/22 12:50:34;;;;;;;2.60;2.08;;;;;;;;;;10214289;29;20066;-71
2022/08/22 12:55:43;;;;;;;3.15;2.05;;;;;;;;;;10217760;28;20039;-71
2022/08/22 13:00:46;;;;;;;3.92;2.10;;;;;;;;;;10224943;29;20122;-72
2022/08/22 13:05:47;;;;;;;3.35;2.20;;;;;;;;;;10242310;28;20136;-72
2022/08/22 13:10:50;;;;;;;3.67;1.85;;;;;;;;;;10236116;28;20039;-74
2022/08/22 13:15:55;;;;;;;3.78;2.45;;;;;;;;;;10238969;28;20450;-73
2022/08/22 13:20:57;;;;;;;4.05;2.22;;;;;;;;;;10229297;28;20046;-71
2022/08/22 13:26:06;;;;;;;2.88;1.88;;;;;;;;;;10223237;28;20043;-74
2022/08/22 13:31:07;;;;;;;2.00;1.77;;;;;;;;;;10232316;29;20035;-75
2022/08/22 13:36:12;;;;;;;2.58;1.63;;;;;;;;;;10239790;28;20054;-73
2022/08/22 13:41:18;;;;;;;2.85;2.00;;;;;;;;;;10229874;28;20039;-72
2022/08/22 13:46:24;;;;;;;2.97;1.70;;;;;;;;;;10218840;28;20391;-73
2022/08/22 13:51:34;;;;;;;4.53;1.90;;;;;;;;;;10212489;28;20138;-78
2022/08/22 13:56:41;;;;;;;3.50;1.92;;;;;;;;;;10236500;28;20068;-70
2022/08/22 14:02:00;;;;;;;2.72;1.92;;;;;;;;;;10245882;28;20043;-70
2022/08/22 14:07:00;;;;;;;2.53;1.90;;;;;;;;;;10226861;28;20048;-71
2022/08/22 14:12:12;;;;;;;2.00;1.80;;;;;;;;;;10237047;29;20059;-70
2022/08/22 14:17:15;;;;;;;2.35;2.13;;;;;;;;;;10236707;28;20043;-73
2022/08/22 14:22:19;;;;;;;2.85;2.10;;;;;;;;;;10233501;28;20058;-74
2022/08/22 14:27:25;;;;;;;2.42;1.88;;;;;;;;;;10237561;28;20046;-80
2022/08/22 14:32:26;;;;;;;2.92;2.15;;;;;;;;;;10235994;28;20043;-72
2022/08/22 14:37:30;;;;;;;2.67;1.83;;;;;;;;;;10239827;28;20039;-75
2022/08/22 14:42:44;;;;;;;3.28;1.95;;;;;;;;;;10240944;28;20125;-74
2022/08/22 14:47:59;;;;;;;2.78;2.10;;;;;;;;;;10243102;28;20133;-70
2022/08/22 14:53:05;;;;;;;2.53;1.65;;;;;;;;;;10237615;28;20043;-71
2022/08/22 14:58:16;;;;;;;4.13;2.00;;;;;;;;;;10243195;28;20046;-73
2022/08/22 15:03:20;;;;;;;2.42;1.90;;;;;;;;;;10227620;28;20051;-70
2022/08/22 15:08:40;;;;;;;3.40;2.40;;;;;;;;;;10238577;29;20142;-73
2022/08/22 15:13:48;;;;;;;2.58;2.10;;;;;;;;;;10218634;29;20096;-72
2022/08/22 15:18:49;;;;;;;2.85;2.10;;;;;;;;;;10233618;28;20075;-72
2022/08/22 15:23:58;;;;;;;3.80;1.83;;;;;;;;;;10245162;28;20146;-83
2022/08/22 15:29:05;;;;;;;5.00;1.90;;;;;;;;;;10243685;28;20035;-71
2022/08/22 15:34:29;;;;;;;1.95;1.85;;;;;;;;;;10222159;28;20131;-71
2022/08/22 15:39:32;;;;;;;2.72;1.77;;;;;;;;;;10232098;28;20054;-74
2022/08/22 15:44:35;;;;;;;3.92;1.98;;;;;;;;;;10236618;28;20713;-71
2022/08/22 15:49:45;;;;;;;3.55;1.98;;;;;;;;;;10236874;28;20183;-71
2022/08/22 15:54:55;;;;;;;4.55;2.08;;;;;;;;;;10239297;28;20039;-71
2022/08/22 16:00:22;;;;;;;2.22;1.90;;;;;;;;;;10215123;28;20059;-70
2022/08/22 16:05:36;;;;;;;2.85;2.13;;;;;;;;;;10237800;28;20098;-70
2022/08/22 16:10:38;;;;;;;3.55;3.28;;;;;;;;;;10218474;28;20126;-72
2022/08/22 16:15:48;;;;;;;3.92;2.28;;;;;;;;;;10238041;28;20122;-70
2022/08/22 16:20:50;;;;;;;4.75;2.33;;;;;;;;;;10234413;28;20039;-72
2022/08/22 16:25:51;;;;;;;5.00;2.80;;;;;;;;;;10236398;28;20046;-74
2022/08/22 16:30:53;;;;;;;3.22;2.30;;;;;;;;;;10225870;28;20123;-72
2022/08/22 16:36:12;;;;;;;3.88;2.60;;;;;;;;;;10235747;28;20053;-72
2022/08/22 16:41:26;;;;;;;3.83;2.25;;;;;;;;;;10217773;29;20066;-73
2022/08/22 16:46:31;;;;;;;4.60;2.20;;;;;;;;;;10225722;28;20147;-73
2022/08/22 16:51:32;;;;;;;3.75;2.20;;;;;;;;;;10238003;28;20138;-71
2022/08/22 16:56:37;;;;;;;2.37;2.00;;;;;;;;;;10230855;28;20050;-73
2022/08/22 17:01:57;;;;;;;4.70;2.45;;;;;;;;;;10233954;28;20119;-74
2022/08/22 17:07:23;;;;;;;2.75;2.10;;;;;;;;;;10233157;28;20518;-70
2022/08/22 17:12:29;;;;;;;5.38;2.30;;;;;;;;;;10239818;28;20044;-82
2022/08/22 17:17:53;;;;;;;3.35;2.20;;;;;;;;;;10241613;28;20044;-81
2022/08/22 17:23:08;;;;;;;3.08;2.58;;;;;;;;;;10255872;28;20098;-80
2022/08/22 17:28:18;;;;;;;5.57;2.97;;;;;;;;;;10251936;28;20043;-80
2022/08/22 17:33:21;;;;;;;2.85;2.47;;;;;;;;;;10241822;28;20066;-81
2022/08/22 17:38:22;;;;;;;3.05;2.50;;;;;;;;;;10240627;28;20042;-72
2022/08/22 17:43:41;;;;;;;3.47;2.60;;;;;;;;;;10237172;28;20039;-69
2022/08/22 17:48:50;;;;;;;4.65;2.38;;;;;;;;;;10237557;28;20500;-73
2022/08/22 17:53:53;;;;;;;3.03;2.40;;;;;;;;;;10238664;28;20134;-72
2022/08/22 17:59:04;;;;;;;2.95;2.08;;;;;;;;;;10245055;28;20959;-74
2022/08/22 18:04:07;;;;;;;2.47;2.00;;;;;;;;;;10241370;28;20138;-76
2022/08/22 18:09:17;;;;;;;3.17;2.20;;;;;;;;;;10223703;28;20043;-73
2022/08/22 18:14:31;;;;;;;2.60;2.30;;;;;;;;;;10221105;28;20042;-71
2022/08/22 18:19:40;;;;;;;2.90;2.20;;;;;;;;;;10206438;28;20098;-73
2022/08/22 18:24:46;;;;;;;2.40;2.03;;;;;;;;;;10234394;28;20114;-78
2022/08/22 18:30:09;;;;;;;5.90;3.92;;;;;;;;;;10266495;28;20095;-80
2022/08/22 18:35:16;;;;;;;2.83;2.63;;;;;;;;;;10264474;28;20420;-79
2022/08/22 18:40:23;;;;;;;2.80;2.40;;;;;;;;;;10268948;29;20047;-81
2022/08/22 18:45:43;;;;;;;5.15;4.00;;;;;;;;;;10279593;28;20047;-77
2022/08/22 18:50:43;;;;;;;3.22;2.92;;;;;;;;;;10282853;28;20034;-78
2022/08/22 18:55:48;;;;;;;3.85;2.83;;;;;;;;;;10250715;29;20062;-79
2022/08/22 19:01:07;;;;;;;2.92;2.70;;;;;;;;;;10235971;28;20087;-77
2022/08/22 19:06:20;;;;;;;3.63;2.90;;;;;;;;;;10241557;28;20043;-76
2022/08/22 19:11:41;;;;;;;3.35;2.58;;;;;;;;;;10236772;28;20126;-77
2022/08/22 19:16:46;;;;;;;4.35;2.78;;;;;;;;;;10237864;29;20046;-77
2022/08/22 19:22:17;;;;;;;3.42;2.70;;;;;;;;;;10233517;28;20050;-77
2022/08/22 19:27:18;;;;;;;3.40;3.00;;;;;;;;;;10238750;28;20069;-77
2022/08/22 19:32:37;;;;;;;3.10;2.80;;;;;;;;;;10209412;29;20126;-77
2022/08/22 19:37:58;;;;;;;5.95;3.00;;;;;;;;;;10231372;28;20271;-76
2022/08/22 19:42:59;;;;;;;3.25;2.85;;;;;;;;;;10228736;28;20517;-78
2022/08/22 19:48:05;;;;;;;4.03;3.17;;;;;;;;;;10234487;28;20042;-76
2022/08/22 19:53:17;;;;;;;4.03;3.50;;;;;;;;;;10237931;28;20043;-78
2022/08/22 19:58:20;;;;;;;3.28;3.00;;;;;;;;;;10242660;28;20059;-76
2022/08/22 20:03:33;;;;;;;3.60;3.28;;;;;;;;;;10212596;28;20105;-77
2022/08/22 20:08:34;;;;;;;5.25;3.60;;;;;;;;;;10236921;28;20058;-76
2022/08/22 20:13:34;;;;;;;3.73;3.37;;;;;;;;;;10234863;28;20047;-76
2022/08/22 20:18:53;;;;;;;4.10;3.60;;;;;;;;;;10233586;29;20460;-75
2022/08/22 20:23:54;;;;;;;4.13;3.70;;;;;;;;;;10233105;28;20051;-76
2022/08/22 20:28:54;;;;;;;4.75;3.78;;;;;;;;;;10229332;29;20039;-76
2022/08/22 20:34:01;;;;;;;5.40;3.70;;;;;;;;;;10219002;29;20090;-76
2022/08/22 20:39:04;;;;;;;4.60;4.00;;;;;;;;;;10233160;28;20114;-76
2022/08/22 20:44:15;;;;;;;4.30;3.90;;;;;;;;;;10238106;28;20590;-75
2022/08/22 20:49:17;;;;;;;4.95;4.47;;;;;;;;;;10234029;28;20055;-76
2022/08/22 20:54:19;;;;;;;6.30;4.97;;;;;;;;;;10238120;29;20043;-77
2022/08/22 20:59:23;;;;;;;4.63;4.22;;;;;;;;;;10229835;29;20042;-77
2022/08/22 21:04:25;;;;;;;5.35;4.55;;;;;;;;;;10240246;28;20042;-76
2022/08/22 21:14:46;;;;;;;5.20;4.70;;;;;;;;;;10227238;28;20097;-76
2022/08/22 21:19:46;;;;;;;7.60;5.35;;;;;;;;;;10212807;28;20518;-76
2022/08/22 21:24:46;;;;;;;6.10;5.50;;;;;;;;;;10227117;28;20496;-77
2022/08/22 21:29:47;;;;;;;6.77;6.07;;;;;;;;;;10236233;28;20066;-75
2022/08/22 21:34:48;;;;;;;5.90;5.30;;;;;;;;;;10228850;28;20378;-75
2022/08/22 21:39:49;;;;;;;7.78;6.13;;;;;;;;;;10217430;28;20054;-76
2022/08/22 21:44:54;;;;;;;7.47;6.57;;;;;;;;;;10225817;28;20410;-75
2022/08/22 21:50:06;;;;;;;7.45;6.70;;;;;;;;;;10225899;28;20078;-74
2022/08/22 21:55:14;;;;;;;6.13;5.57;;;;;;;;;;10231065;28;20043;-77
2022/08/22 22:00:33;;;;;;;11.38;8.70;;;;;;;;;;10230865;28;20043;-76
2022/08/22 22:05:34;;;;;;;7.38;6.63;;;;;;;;;;10236031;28;20134;-76
2022/08/22 22:10:34;;;;;;;10.00;7.78;;;;;;;;;;10231741;28;20178;-74
2022/08/22 22:15:38;;;;;;;8.02;7.30;;;;;;;;;;10234050;28;20039;-74
2022/08/22 22:20:39;;;;;;;7.60;6.78;;;;;;;;;;10233441;28;20082;-75
2022/08/22 22:25:40;;;;;;;7.18;6.47;;;;;;;;;;10235404;28;20035;-75
2022/08/22 22:30:41;;;;;;;6.32;5.72;;;;;;;;;;10223786;28;20043;-77
2022/08/22 22:35:41;;;;;;;6.85;6.28;;;;;;;;;;10230161;28;20047;-75
2022/08/22 22:40:42;;;;;;;7.47;6.55;;;;;;;;;;10238538;28;20047;-76
2022/08/22 22:45:42;;;;;;;7.53;6.80;;;;;;;;;;10233573;28;20143;-77
2022/08/22 22:50:43;;;;;;;7.37;6.77;;;;;;;;;;10224792;29;20090;-77
2022/08/22 22:55:43;;;;;;;8.18;7.38;;;;;;;;;;10218739;28;20131;-75
2022/08/22 23:00:43;;;;;;;8.37;7.57;;;;;;;;;;10242131;28;20065;-77
2022/08/22 23:05:44;;;;;;;8.40;7.60;;;;;;;;;;10234801;28;20301;-75
2022/08/22 23:10:44;;;;;;;7.80;6.97;;;;;;;;;;10217658;28;20320;-77
2022/08/22 23:15:44;;;;;;;8.03;7.23;;;;;;;;;;10242963;28;20122;-78
2022/08/22 23:20:45;;;;;;;9.00;8.10;;;;;;;;;;10215381;29;20665;-77
2022/08/22 23:25:45;;;;;;;7.63;7.03;;;;;;;;;;10242661;28;20303;-76
2022/08/22 23:30:45;;;;;;;8.30;7.60;;;;;;;;;;10234583;29;20338;-77
2022/08/22 23:35:46;;;;;;;8.17;7.37;;;;;;;;;;10217166;28;20066;-77
2022/08/22 23:40:46;;;;;;;8.93;8.07;;;;;;;;;;10235863;28;20059;-77
2022/08/22 23:45:46;;;;;;;8.80;8.00;;;;;;;;;;10246030;28;20398;-78
2022/08/22 23:50:47;;;;;;;9.10;8.30;;;;;;;;;;10252707;28;20015;-77
2022/08/22 23:55:47;;;;;;;8.85;7.78;;;;;;;;;;10286330;28;20724;-77
